createdAt,value
2023-04-15T00:00:13.622Z,69.42
2023-04-15T00:01:13.636Z,69.30
2023-04-15T00:02:13.684Z,69.22
2023-04-15T00:03:13.771Z,69.13
2023-04-15T00:04:13.717Z,69.09
2023-04-15T00:05:13.658Z,68.96
2023-04-15T00:06:13.679Z,68.80
2023-04-15T00:07:13.669Z,68.72
2023-04-15T00:08:13.664Z,69.17
2023-04-15T00:09:13.666Z,68.99
2023-04-15T00:10:13.684Z,68.64
2023-04-15T00:11:13.710Z,68.98
2023-04-15T00:12:13.720Z,69.58
2023-04-15T00:13:13.726Z,69.42
2023-04-15T00:14:13.702Z,69.25
2023-04-15T00:15:13.706Z,68.79
2023-04-15T00:16:13.718Z,69.39
2023-04-15T00:17:13.725Z,69.20
2023-04-15T00:18:13.722Z,69.03
2023-04-15T00:19:13.727Z,69.60
2023-04-15T00:20:13.728Z,69.46
2023-04-15T00:21:13.746Z,69.44
2023-04-15T00:22:13.808Z,69.38
2023-04-15T00:23:13.757Z,69.76
2023-04-15T00:24:13.762Z,69.89
2023-04-15T00:25:13.762Z,69.56
2023-04-15T00:26:13.764Z,69.31
2023-04-15T00:27:13.851Z,69.24
2023-04-15T00:28:13.770Z,69.14
2023-04-15T00:29:13.785Z,68.89
2023-04-15T00:30:13.838Z,68.82
2023-04-15T00:31:13.911Z,69.00
2023-04-15T00:32:13.989Z,69.14
2023-04-15T00:33:14.015Z,68.95
2023-04-15T00:34:14.080Z,68.83
2023-04-15T00:35:14.111Z,68.59
2023-04-15T00:36:14.178Z,68.59
2023-04-15T00:37:14.263Z,68.52
2023-04-15T00:38:14.299Z,68.54
2023-04-15T00:39:14.338Z,68.75
2023-04-15T00:40:14.358Z,68.86
2023-04-15T00:41:14.376Z,68.79
2023-04-15T00:42:14.417Z,68.94
2023-04-15T00:43:14.519Z,69.21
2023-04-15T00:44:14.523Z,69.08
2023-04-15T00:45:14.484Z,69.08
2023-04-15T00:46:14.553Z,69.19
2023-04-15T00:47:14.508Z,69.06
2023-04-15T00:48:14.533Z,69.19
2023-04-15T00:49:14.548Z,69.09
2023-04-15T00:50:14.555Z,69.22
2023-04-15T00:51:14.596Z,69.04
2023-04-15T00:52:14.607Z,69.36
2023-04-15T00:53:14.637Z,69.32
2023-04-15T00:54:14.654Z,69.18
2023-04-15T00:55:14.687Z,69.23
2023-04-15T00:56:14.714Z,69.28
2023-04-15T00:57:14.729Z,69.20
2023-04-15T00:58:14.742Z,69.28
2023-04-15T00:59:14.788Z,69.31
2023-04-15T01:00:14.782Z,69.14
2023-04-15T01:01:14.867Z,69.28
2023-04-15T01:02:14.970Z,69.25
2023-04-15T01:03:14.932Z,69.47
2023-04-15T01:04:14.920Z,69.46
2023-04-15T01:05:14.904Z,69.25
2023-04-15T01:06:14.933Z,69.18
2023-04-15T01:07:14.970Z,69.13
2023-04-15T01:08:15.013Z,68.90
2023-04-15T01:09:15.043Z,68.74
2023-04-15T01:10:15.045Z,68.54
2023-04-15T01:11:15.057Z,68.49
2023-04-15T01:12:15.072Z,68.51
2023-04-15T01:13:15.102Z,68.38
2023-04-15T01:14:15.121Z,68.28
2023-04-15T01:15:15.149Z,68.37
2023-04-15T01:16:15.176Z,68.76
2023-04-15T01:17:15.155Z,68.63
2023-04-15T01:18:15.170Z,68.84
2023-04-15T01:19:15.205Z,69.16
2023-04-15T01:20:15.212Z,68.85
2023-04-15T01:21:15.244Z,69.03
2023-04-15T01:22:15.276Z,69.21
2023-04-15T01:23:15.271Z,69.02
2023-04-15T01:24:15.284Z,68.95
2023-04-15T01:25:15.319Z,68.86
2023-04-15T01:26:15.314Z,68.98
2023-04-15T01:27:15.329Z,69.02
2023-04-15T01:28:15.348Z,69.04
2023-04-15T01:29:15.364Z,69.06
2023-04-15T01:30:15.384Z,69.03
2023-04-15T01:31:15.466Z,69.07
2023-04-15T01:32:15.410Z,68.89
2023-04-15T01:33:15.444Z,69.00
2023-04-15T01:34:15.468Z,69.09
2023-04-15T01:35:15.512Z,69.15
2023-04-15T01:36:15.533Z,69.15
2023-04-15T01:37:15.574Z,69.15
2023-04-15T01:38:15.621Z,69.18
2023-04-15T01:39:15.630Z,69.07
2023-04-15T01:40:15.659Z,68.97
2023-04-15T01:41:15.680Z,68.94
2023-04-15T01:42:15.715Z,68.92
2023-04-15T01:43:15.745Z,69.01
2023-04-15T01:44:15.788Z,69.12
2023-04-15T01:45:16.708Z,68.88
2023-04-15T01:46:15.903Z,69.00
2023-04-15T01:47:15.903Z,69.35
2023-04-15T01:48:15.931Z,69.26
2023-04-15T01:49:15.986Z,69.39
2023-04-15T01:50:16.075Z,69.49
2023-04-15T01:51:16.150Z,69.41
2023-04-15T01:52:16.229Z,69.65
2023-04-15T01:53:16.309Z,70.54
2023-04-15T01:54:16.361Z,70.91
2023-04-15T01:55:16.435Z,70.95
2023-04-15T01:56:16.958Z,70.82
2023-04-15T01:57:16.521Z,70.86
2023-04-15T01:58:16.571Z,70.62
2023-04-15T01:59:16.634Z,70.55
2023-04-15T02:00:16.694Z,70.56
2023-04-15T02:01:16.829Z,70.55
2023-04-15T02:02:16.820Z,70.59
2023-04-15T02:03:17.014Z,70.48
2023-04-15T02:04:16.950Z,70.34
2023-04-15T02:05:16.997Z,70.15
2023-04-15T02:06:17.072Z,70.48
2023-04-15T02:07:17.141Z,70.79
2023-04-15T02:08:17.203Z,70.98
2023-04-15T02:09:17.234Z,70.39
2023-04-15T02:10:17.272Z,70.48
2023-04-15T02:11:17.319Z,70.17
2023-04-15T02:12:17.364Z,69.95
2023-04-15T02:13:17.387Z,69.79
2023-04-15T02:14:17.434Z,69.75
2023-04-15T02:15:17.476Z,69.71
2023-04-15T02:16:17.619Z,69.64
2023-04-15T02:17:17.599Z,69.63
2023-04-15T02:18:17.628Z,69.59
2023-04-15T02:19:17.713Z,69.54
2023-04-15T02:20:17.721Z,69.55
2023-04-15T02:21:17.758Z,69.70
2023-04-15T02:22:17.794Z,69.47
2023-04-15T02:23:17.815Z,69.39
2023-04-15T02:24:17.905Z,69.48
2023-04-15T02:25:17.900Z,69.34
2023-04-15T02:26:17.925Z,69.14
2023-04-15T02:27:17.957Z,69.13
2023-04-15T02:28:17.989Z,69.46
2023-04-15T02:29:18.024Z,69.22
2023-04-15T02:30:18.077Z,69.48
2023-04-15T02:31:18.174Z,69.61
2023-04-15T02:32:18.265Z,69.87
2023-04-15T02:33:18.307Z,70.17
2023-04-15T02:34:18.391Z,70.11
2023-04-15T02:35:18.473Z,70.17
2023-04-15T02:36:18.537Z,70.15
2023-04-15T02:37:18.618Z,70.40
2023-04-15T02:38:18.699Z,70.63
2023-04-15T02:39:18.787Z,70.63
2023-04-15T02:40:18.922Z,70.69
2023-04-15T02:41:18.955Z,70.41
2023-04-15T02:42:19.019Z,70.55
2023-04-15T02:43:19.109Z,70.76
2023-04-15T02:44:19.174Z,70.70
2023-04-15T02:45:19.190Z,70.99
2023-04-15T02:46:19.310Z,71.06
2023-04-15T02:47:19.360Z,71.10
2023-04-15T02:48:19.464Z,71.08
2023-04-15T02:49:19.521Z,71.05
2023-04-15T02:50:19.604Z,71.14
2023-04-15T02:51:19.720Z,71.20
2023-04-15T02:52:20.720Z,71.10
2023-04-15T02:53:19.861Z,71.17
2023-04-15T02:54:19.881Z,71.02
2023-04-15T02:55:19.987Z,71.26
2023-04-15T02:56:20.057Z,70.84
2023-04-15T02:57:20.072Z,70.65
2023-04-15T02:58:20.728Z,70.77
2023-04-15T02:59:20.159Z,70.77
2023-04-15T03:00:20.195Z,70.70
2023-04-15T03:01:20.316Z,70.59
2023-04-15T03:02:20.354Z,70.55
2023-04-15T03:03:20.450Z,70.53
2023-04-15T03:04:20.445Z,70.41
2023-04-15T03:05:20.376Z,70.35
2023-04-15T03:06:20.394Z,70.41
2023-04-15T03:07:20.436Z,70.46
2023-04-15T03:08:20.438Z,70.38
2023-04-15T03:09:20.459Z,70.29
2023-04-15T03:10:20.496Z,70.35
2023-04-15T03:11:20.532Z,70.60
2023-04-15T03:12:20.590Z,70.62
2023-04-15T03:13:20.659Z,70.81
2023-04-15T03:14:20.723Z,70.71
2023-04-15T03:15:20.798Z,70.73
2023-04-15T03:16:20.918Z,70.65
2023-04-15T03:17:20.974Z,70.59
2023-04-15T03:18:21.024Z,70.59
2023-04-15T03:19:21.101Z,70.58
2023-04-15T03:20:21.269Z,70.97
2023-04-15T03:21:21.269Z,71.53
2023-04-15T03:22:21.356Z,71.26
2023-04-15T03:23:21.455Z,71.18
2023-04-15T03:24:21.504Z,70.97
2023-04-15T03:25:21.575Z,70.79
2023-04-15T03:26:21.633Z,70.66
2023-04-15T03:27:21.729Z,70.54
2023-04-15T03:28:21.789Z,70.56
2023-04-15T03:29:21.849Z,70.66
2023-04-15T03:30:21.923Z,70.51
2023-04-15T03:31:22.246Z,70.61
2023-04-15T03:32:22.078Z,70.59
2023-04-15T03:33:22.110Z,70.58
2023-04-15T03:34:22.186Z,70.59
2023-04-15T03:35:22.289Z,70.61
2023-04-15T03:36:22.306Z,70.68
2023-04-15T03:37:22.353Z,70.63
2023-04-15T03:38:22.405Z,70.65
2023-04-15T03:39:22.474Z,70.58
2023-04-15T03:40:22.536Z,70.65
2023-04-15T03:41:22.533Z,70.67
2023-04-15T03:42:22.560Z,70.65
2023-04-15T03:43:22.597Z,70.68
2023-04-15T03:44:22.600Z,70.69
2023-04-15T03:45:22.638Z,70.70
2023-04-15T03:46:22.689Z,70.50
2023-04-15T03:47:22.721Z,70.64
2023-04-15T03:48:22.834Z,70.61
2023-04-15T03:49:22.759Z,70.44
2023-04-15T03:50:22.815Z,70.51
2023-04-15T03:51:22.857Z,70.55
2023-04-15T03:52:22.931Z,70.57
2023-04-15T03:53:22.966Z,70.45
2023-04-15T03:54:22.994Z,70.60
2023-04-15T03:55:23.045Z,70.56
2023-04-15T03:56:23.044Z,70.40
2023-04-15T03:57:23.092Z,70.56
2023-04-15T03:58:23.141Z,70.52
2023-04-15T03:59:23.173Z,70.53
2023-04-15T04:00:23.228Z,70.48
2023-04-15T04:01:23.273Z,70.46
2023-04-15T04:02:23.625Z,70.58
2023-04-15T04:03:23.493Z,70.49
2023-04-15T04:04:23.613Z,70.45
2023-04-15T04:05:23.450Z,70.39
2023-04-15T04:06:23.487Z,70.29
2023-04-15T04:07:23.504Z,70.44
2023-04-15T04:08:23.518Z,70.69
2023-04-15T04:09:23.539Z,70.37
2023-04-15T04:10:23.571Z,70.33
2023-04-15T04:11:23.639Z,70.52
2023-04-15T04:12:23.614Z,70.66
2023-04-15T04:13:23.665Z,70.62
2023-04-15T04:14:23.704Z,70.61
2023-04-15T04:15:23.772Z,70.61
2023-04-15T04:16:23.859Z,70.57
2023-04-15T04:17:23.868Z,70.59
2023-04-15T04:18:23.864Z,70.58
2023-04-15T04:19:23.903Z,70.72
2023-04-15T04:20:23.939Z,70.68
2023-04-15T04:21:23.982Z,70.64
2023-04-15T04:22:24.013Z,70.57
2023-04-15T04:23:24.054Z,70.54
2023-04-15T04:24:24.093Z,70.60
2023-04-15T04:25:24.154Z,70.73
2023-04-15T04:26:24.190Z,70.57
2023-04-15T04:27:24.264Z,70.48
2023-04-15T04:28:24.293Z,70.39
2023-04-15T04:29:24.340Z,70.20
2023-04-15T04:30:24.399Z,70.23
2023-04-15T04:31:24.496Z,70.30
2023-04-15T04:32:24.563Z,70.23
2023-04-15T04:33:24.573Z,70.26
2023-04-15T04:34:24.631Z,70.27
2023-04-15T04:35:24.686Z,70.32
2023-04-15T04:36:24.732Z,70.45
2023-04-15T04:37:24.771Z,70.44
2023-04-15T04:38:24.806Z,70.47
2023-04-15T04:39:24.866Z,71.04
2023-04-15T04:40:24.931Z,70.68
2023-04-15T04:41:24.958Z,70.48
2023-04-15T04:42:25.015Z,70.09
2023-04-15T04:43:25.108Z,70.20
2023-04-15T04:44:25.148Z,70.37
2023-04-15T04:45:25.230Z,70.09
2023-04-15T04:46:25.280Z,70.10
2023-04-15T04:47:25.369Z,70.04
2023-04-15T04:48:25.406Z,70.24
2023-04-15T04:49:25.462Z,70.45
2023-04-15T04:50:25.549Z,70.62
2023-04-15T04:51:25.624Z,70.58
2023-04-15T04:52:25.716Z,70.77
2023-04-15T04:53:25.783Z,70.73
2023-04-15T04:54:25.855Z,70.59
2023-04-15T04:55:25.953Z,70.52
2023-04-15T04:56:26.025Z,70.51
2023-04-15T04:57:26.105Z,70.48
2023-04-15T04:58:26.155Z,70.43
2023-04-15T04:59:26.253Z,70.22
2023-04-15T05:00:26.303Z,70.40
2023-04-15T05:01:26.358Z,70.71
2023-04-15T05:02:26.557Z,70.95
2023-04-15T05:03:26.616Z,70.39
2023-04-15T05:04:26.569Z,70.23
2023-04-15T05:05:26.651Z,70.33
2023-04-15T05:06:26.714Z,70.23
2023-04-15T05:07:26.792Z,70.00
2023-04-15T05:08:26.829Z,70.09
2023-04-15T05:09:26.886Z,70.14
2023-04-15T05:10:26.937Z,70.16
2023-04-15T05:11:26.992Z,70.19
2023-04-15T05:12:27.040Z,70.12
2023-04-15T05:13:27.074Z,70.08
2023-04-15T05:14:27.108Z,70.00
2023-04-15T05:15:27.146Z,70.02
2023-04-15T05:16:27.141Z,69.88
2023-04-15T05:17:27.242Z,70.02
2023-04-15T05:18:27.231Z,70.05
2023-04-15T05:19:27.283Z,70.03
2023-04-15T05:20:27.329Z,70.05
2023-04-15T05:21:27.362Z,70.02
2023-04-15T05:22:27.396Z,70.17
2023-04-15T05:23:27.424Z,70.07
2023-04-15T05:24:27.472Z,70.53
2023-04-15T05:25:27.511Z,70.22
2023-04-15T05:26:27.593Z,70.24
2023-04-15T05:27:27.600Z,70.32
2023-04-15T05:28:27.648Z,70.19
2023-04-15T05:29:27.690Z,70.12
2023-04-15T05:30:27.731Z,70.11
2023-04-15T05:31:28.028Z,70.21
2023-04-15T05:32:27.891Z,70.24
2023-04-15T05:33:27.901Z,70.02
2023-04-15T05:34:27.950Z,69.95
2023-04-15T05:35:27.983Z,70.08
2023-04-15T05:36:28.004Z,69.99
2023-04-15T05:37:28.032Z,70.17
2023-04-15T05:38:28.051Z,69.99
2023-04-15T05:39:28.069Z,69.59
2023-04-15T05:40:28.111Z,69.45
2023-04-15T05:41:28.111Z,69.40
2023-04-15T05:42:28.122Z,69.21
2023-04-15T05:43:28.138Z,69.10
2023-04-15T05:44:28.167Z,69.19
2023-04-15T05:45:28.190Z,69.40
2023-04-15T05:46:28.260Z,69.54
2023-04-15T05:47:28.287Z,69.41
2023-04-15T05:48:29.263Z,69.31
2023-04-15T05:49:28.299Z,69.26
2023-04-15T05:50:28.321Z,69.19
2023-04-15T05:51:28.328Z,69.08
2023-04-15T05:52:28.344Z,69.10
2023-04-15T05:53:28.379Z,69.35
2023-04-15T05:54:28.369Z,69.61
2023-04-15T05:55:28.383Z,69.57
2023-04-15T05:56:28.398Z,69.50
2023-04-15T05:57:28.415Z,69.45
2023-04-15T05:58:28.429Z,69.49
2023-04-15T05:59:28.473Z,70.10
2023-04-15T06:00:28.514Z,69.97
2023-04-15T06:01:28.674Z,69.70
2023-04-15T06:02:28.627Z,69.81
2023-04-15T06:03:28.704Z,69.73
2023-04-15T06:04:28.833Z,69.45
2023-04-15T06:05:28.658Z,69.08
2023-04-15T06:06:28.675Z,68.76
2023-04-15T06:07:28.711Z,68.80
2023-04-15T06:08:28.769Z,68.54
2023-04-15T06:09:28.853Z,68.58
2023-04-15T06:10:29.014Z,68.83
2023-04-15T06:11:28.953Z,68.77
2023-04-15T06:12:29.009Z,68.28
2023-04-15T06:13:29.070Z,68.22
2023-04-15T06:14:29.120Z,67.39
2023-04-15T06:15:29.171Z,67.06
2023-04-15T06:16:29.227Z,67.03
2023-04-15T06:17:29.347Z,66.94
2023-04-15T06:18:29.321Z,67.08
2023-04-15T06:19:29.983Z,66.10
2023-04-15T06:20:29.466Z,65.56
2023-04-15T06:21:29.519Z,65.73
2023-04-15T06:22:29.629Z,66.25
2023-04-15T06:23:29.616Z,66.26
2023-04-15T06:24:29.656Z,64.70
2023-04-15T06:25:29.696Z,64.89
2023-04-15T06:26:29.722Z,64.02
2023-04-15T06:27:29.764Z,64.30
2023-04-15T06:28:29.787Z,64.07
2023-04-15T06:29:29.804Z,64.19
2023-04-15T06:30:29.840Z,64.00
2023-04-15T06:31:29.926Z,63.93
2023-04-15T06:32:29.970Z,64.25
2023-04-15T06:33:29.972Z,64.13
2023-04-15T06:34:29.994Z,63.96
2023-04-15T06:35:30.061Z,64.09
2023-04-15T06:36:30.063Z,63.98
2023-04-15T06:37:30.061Z,63.81
2023-04-15T06:38:30.075Z,63.25
2023-04-15T06:39:30.086Z,62.07
2023-04-15T06:40:30.115Z,61.61
2023-04-15T06:41:30.135Z,61.22
2023-04-15T06:42:30.150Z,61.51
2023-04-15T06:43:30.162Z,61.04
2023-04-15T06:44:31.577Z,60.72
2023-04-15T06:45:30.198Z,60.54
2023-04-15T06:46:30.133Z,61.07
2023-04-15T06:47:30.141Z,60.98
2023-04-15T06:48:30.110Z,61.06
2023-04-15T06:49:30.087Z,62.11
2023-04-15T06:50:30.080Z,60.44
2023-04-15T06:51:30.085Z,59.58
2023-04-15T06:52:30.050Z,59.10
2023-04-15T06:53:30.071Z,59.28
2023-04-15T06:54:30.027Z,58.50
2023-04-15T06:55:30.022Z,58.53
2023-04-15T06:56:30.020Z,58.16
2023-04-15T06:57:31.563Z,58.17
2023-04-15T06:58:29.980Z,58.30
2023-04-15T06:59:29.972Z,57.98
2023-04-15T07:00:30.003Z,58.19
2023-04-15T07:01:30.076Z,58.50
2023-04-15T07:02:30.261Z,58.39
2023-04-15T07:03:32.569Z,58.73
2023-04-15T07:04:29.998Z,58.43
2023-04-15T07:05:29.902Z,58.84
2023-04-15T07:06:29.890Z,60.14
2023-04-15T07:07:29.900Z,59.74
2023-04-15T07:08:29.858Z,58.32
2023-04-15T07:09:29.874Z,58.71
2023-04-15T07:10:29.830Z,58.43
2023-04-15T07:11:29.815Z,58.62
2023-04-15T07:12:29.820Z,58.24
2023-04-15T07:13:29.785Z,58.05
2023-04-15T07:14:29.773Z,58.61
2023-04-15T07:15:29.773Z,59.22
2023-04-15T07:16:30.013Z,58.67
2023-04-15T07:17:29.745Z,58.13
2023-04-15T07:18:29.706Z,57.85
2023-04-15T07:19:29.683Z,57.18
2023-04-15T07:20:29.705Z,56.85
2023-04-15T07:21:29.661Z,56.99
2023-04-15T07:22:29.646Z,57.02
2023-04-15T07:23:29.657Z,56.92
2023-04-15T07:24:29.618Z,56.48
2023-04-15T07:25:29.608Z,56.30
2023-04-15T07:26:29.581Z,56.11
2023-04-15T07:27:29.572Z,56.81
2023-04-15T07:28:29.543Z,56.05
2023-04-15T07:29:29.536Z,56.01
2023-04-15T07:30:29.522Z,55.95
2023-04-15T07:31:29.589Z,57.00
2023-04-15T07:32:29.526Z,55.29
2023-04-15T07:33:29.482Z,55.43
2023-04-15T07:34:31.447Z,55.27
2023-04-15T07:35:29.462Z,54.86
2023-04-15T07:36:29.443Z,55.47
2023-04-15T07:37:29.420Z,55.76
2023-04-15T07:38:29.415Z,55.51
2023-04-15T07:39:29.425Z,54.97
2023-04-15T07:40:29.402Z,54.40
2023-04-15T07:41:29.375Z,53.64
2023-04-15T07:42:29.387Z,53.51
2023-04-15T07:43:29.368Z,53.00
2023-04-15T07:44:29.355Z,52.65
2023-04-15T07:45:29.351Z,52.09
2023-04-15T07:46:29.381Z,52.05
2023-04-15T07:47:29.374Z,52.59
2023-04-15T07:48:29.346Z,52.64
2023-04-15T07:49:29.327Z,52.67
2023-04-15T07:50:29.318Z,52.80
2023-04-15T07:51:29.310Z,52.62
2023-04-15T07:52:29.301Z,52.67
2023-04-15T07:53:29.288Z,52.91
2023-04-15T07:54:29.292Z,53.23
2023-04-15T07:55:29.297Z,52.85
2023-04-15T07:56:29.269Z,52.48
2023-04-15T07:57:29.271Z,52.40
2023-04-15T07:58:29.266Z,52.29
2023-04-15T07:59:29.254Z,51.99
2023-04-15T08:00:29.223Z,51.89
2023-04-15T08:01:29.213Z,52.27
2023-04-15T08:02:29.349Z,51.99
2023-04-15T08:03:29.418Z,51.71
2023-04-15T08:04:29.277Z,51.67
2023-04-15T08:05:29.120Z,52.22
2023-04-15T08:06:29.116Z,52.31
2023-04-15T08:07:29.080Z,52.83
2023-04-15T08:08:29.063Z,52.94
2023-04-15T08:09:29.025Z,53.06
2023-04-15T08:10:29.000Z,53.31
2023-04-15T08:11:29.008Z,54.10
2023-04-15T08:12:28.979Z,53.35
2023-04-15T08:13:28.920Z,52.47
2023-04-15T08:14:28.916Z,51.47
2023-04-15T08:15:28.925Z,51.58
2023-04-15T08:16:28.959Z,51.51
2023-04-15T08:17:28.971Z,51.52
2023-04-15T08:18:28.905Z,51.02
2023-04-15T08:19:28.891Z,50.37
2023-04-15T08:20:28.917Z,51.03
2023-04-15T08:21:28.965Z,50.44
2023-04-15T08:22:29.058Z,49.91
2023-04-15T08:23:29.045Z,50.54
2023-04-15T08:24:29.049Z,50.18
2023-04-15T08:25:29.066Z,50.19
2023-04-15T08:26:29.059Z,50.29
2023-04-15T08:27:29.066Z,50.42
2023-04-15T08:28:29.030Z,50.13
2023-04-15T08:29:29.022Z,49.87
2023-04-15T08:30:29.020Z,49.59
2023-04-15T08:31:29.045Z,49.86
2023-04-15T08:32:29.091Z,49.43
2023-04-15T08:33:28.966Z,50.17
2023-04-15T08:34:28.942Z,49.22
2023-04-15T08:35:28.915Z,49.44
2023-04-15T08:36:28.883Z,49.45
2023-04-15T08:37:28.870Z,49.33
2023-04-15T08:38:28.873Z,49.51
2023-04-15T08:39:28.846Z,50.31
2023-04-15T08:40:28.839Z,49.81
2023-04-15T08:41:28.832Z,49.60
2023-04-15T08:42:28.816Z,49.62
2023-04-15T08:43:28.849Z,49.81
2023-04-15T08:44:28.841Z,49.82
2023-04-15T08:45:28.865Z,50.18
2023-04-15T08:46:28.894Z,50.01
2023-04-15T08:47:28.934Z,49.14
2023-04-15T08:48:28.957Z,49.95
2023-04-15T08:49:28.975Z,49.56
2023-04-15T08:50:29.005Z,48.96
2023-04-15T08:51:29.006Z,49.57
2023-04-15T08:52:29.005Z,48.77
2023-04-15T08:53:29.015Z,48.41
2023-04-15T08:54:28.977Z,49.23
2023-04-15T08:55:28.970Z,48.35
2023-04-15T08:56:29.018Z,48.06
2023-04-15T08:57:29.016Z,48.12
2023-04-15T08:58:29.026Z,48.71
2023-04-15T08:59:29.041Z,48.14
2023-04-15T09:00:29.038Z,47.83
2023-04-15T09:01:29.079Z,48.46
2023-04-15T09:02:29.121Z,48.49
2023-04-15T09:03:29.142Z,48.45
2023-04-15T09:04:29.116Z,47.95
2023-04-15T09:05:29.087Z,48.47
2023-04-15T09:06:29.088Z,48.40
2023-04-15T09:07:29.100Z,48.22
2023-04-15T09:08:29.125Z,47.73
2023-04-15T09:09:29.165Z,47.63
2023-04-15T09:10:29.174Z,47.62
2023-04-15T09:11:29.230Z,48.39
2023-04-15T09:12:29.212Z,47.92
2023-04-15T09:13:29.253Z,47.98
2023-04-15T09:14:29.282Z,48.12
2023-04-15T09:15:29.323Z,47.84
2023-04-15T09:16:29.333Z,47.69
2023-04-15T09:17:29.320Z,46.87
2023-04-15T09:18:29.285Z,46.78
2023-04-15T09:19:29.261Z,47.03
2023-04-15T09:20:29.248Z,46.36
2023-04-15T09:21:29.232Z,46.73
2023-04-15T09:22:29.223Z,46.46
2023-04-15T09:23:29.194Z,46.21
2023-04-15T09:24:29.185Z,45.66
2023-04-15T09:25:29.162Z,46.30
2023-04-15T09:26:29.150Z,45.73
2023-04-15T09:27:29.130Z,45.15
2023-04-15T09:28:29.104Z,45.34
2023-04-15T09:29:29.079Z,46.62
2023-04-15T09:30:29.098Z,44.34
2023-04-15T09:31:29.031Z,43.68
2023-04-15T09:32:29.079Z,43.99
2023-04-15T09:33:28.942Z,43.76
2023-04-15T09:34:28.916Z,43.73
2023-04-15T09:35:28.885Z,44.14
2023-04-15T09:36:28.826Z,44.14
2023-04-15T09:37:32.496Z,44.63
2023-04-15T09:38:28.728Z,45.12
2023-04-15T09:39:28.681Z,44.79
2023-04-15T09:40:28.629Z,44.60
2023-04-15T09:41:28.636Z,43.58
2023-04-15T09:42:28.530Z,43.89
2023-04-15T09:43:28.492Z,44.17
2023-04-15T09:44:28.436Z,44.42
2023-04-15T09:45:29.510Z,44.20
2023-04-15T09:46:28.379Z,43.94
2023-04-15T09:47:28.353Z,44.42
2023-04-15T09:48:28.256Z,43.59
2023-04-15T09:49:28.244Z,44.33
2023-04-15T09:50:28.175Z,44.02
2023-04-15T09:51:28.132Z,44.58
2023-04-15T09:52:28.084Z,44.23
2023-04-15T09:53:29.346Z,44.16
2023-04-15T09:54:27.993Z,44.96
2023-04-15T09:55:27.962Z,44.51
2023-04-15T09:56:27.890Z,44.07
2023-04-15T09:57:27.843Z,43.73
2023-04-15T09:58:27.790Z,44.23
2023-04-15T09:59:27.741Z,44.28
2023-04-15T10:00:27.703Z,44.95
2023-04-15T10:01:27.664Z,45.77
2023-04-15T10:02:27.657Z,45.77
2023-04-15T10:03:27.756Z,45.53
2023-04-15T10:04:27.553Z,45.33
2023-04-15T10:05:28.012Z,44.59
2023-04-15T10:06:27.611Z,45.13
2023-04-15T10:07:27.583Z,44.49
2023-04-15T10:08:27.566Z,44.53
2023-04-15T10:09:27.537Z,44.30
2023-04-15T10:10:27.534Z,44.31
2023-04-15T10:11:28.657Z,44.27
2023-04-15T10:12:27.469Z,44.33
2023-04-15T10:13:27.424Z,44.85
2023-04-15T10:14:27.366Z,45.87
2023-04-15T10:15:27.328Z,45.55
2023-04-15T10:16:27.474Z,45.26
2023-04-15T10:17:27.686Z,45.00
2023-04-15T10:18:27.180Z,45.73
2023-04-15T10:19:27.148Z,44.97
2023-04-15T10:20:27.114Z,44.89
2023-04-15T10:21:27.058Z,45.00
2023-04-15T10:22:27.018Z,44.97
2023-04-15T10:23:26.977Z,44.87
2023-04-15T10:24:26.936Z,44.33
2023-04-15T10:25:26.899Z,44.25
2023-04-15T10:26:26.853Z,44.52
2023-04-15T10:27:26.840Z,44.41
2023-04-15T10:28:26.854Z,44.89
2023-04-15T10:29:26.889Z,45.48
2023-04-15T10:30:26.916Z,45.79
2023-04-15T10:31:26.971Z,45.94
2023-04-15T10:32:27.008Z,46.18
2023-04-15T10:33:27.006Z,46.44
2023-04-15T10:34:27.026Z,46.33
2023-04-15T10:35:27.090Z,45.72
2023-04-15T10:36:27.021Z,46.08
2023-04-15T10:37:27.033Z,45.28
2023-04-15T10:38:27.050Z,45.85
2023-04-15T10:39:27.126Z,44.73
2023-04-15T10:40:27.108Z,44.26
2023-04-15T10:41:27.123Z,45.08
2023-04-15T10:42:27.132Z,45.26
2023-04-15T10:43:27.079Z,45.35
2023-04-15T10:44:27.035Z,45.08
2023-04-15T10:45:27.009Z,44.63
2023-04-15T10:46:27.004Z,44.57
2023-04-15T10:47:26.970Z,45.19
2023-04-15T10:48:26.909Z,46.65
2023-04-15T10:49:26.927Z,46.02
2023-04-15T10:50:26.942Z,45.82
2023-04-15T10:51:26.960Z,46.58
2023-04-15T10:52:26.916Z,46.59
2023-04-15T10:53:26.900Z,46.50
2023-04-15T10:54:26.885Z,46.32
2023-04-15T10:55:26.900Z,46.54
2023-04-15T10:56:26.890Z,47.04
2023-04-15T10:57:26.853Z,48.98
2023-04-15T10:58:26.834Z,49.30
2023-04-15T10:59:26.848Z,49.72
2023-04-15T11:00:26.885Z,49.71
2023-04-15T11:01:26.896Z,51.78
2023-04-15T11:02:27.009Z,49.95
2023-04-15T11:03:27.042Z,49.66
2023-04-15T11:04:27.061Z,49.17
2023-04-15T11:05:26.997Z,51.40
2023-04-15T11:06:27.013Z,53.38
2023-04-15T11:07:27.060Z,54.62
2023-04-15T11:08:27.044Z,53.81
2023-04-15T11:09:27.079Z,53.18
2023-04-15T11:10:27.102Z,52.01
2023-04-15T11:11:27.122Z,51.27
2023-04-15T11:12:27.138Z,50.65
2023-04-15T11:13:27.172Z,51.12
2023-04-15T11:14:27.201Z,51.86
2023-04-15T11:15:27.257Z,51.58
2023-04-15T11:16:27.289Z,51.49
2023-04-15T11:17:27.379Z,51.32
2023-04-15T11:18:27.274Z,50.28
2023-04-15T11:19:27.254Z,50.29
2023-04-15T11:20:27.258Z,48.04
2023-04-15T11:21:27.254Z,49.07
2023-04-15T11:22:27.288Z,48.88
2023-04-15T11:23:27.352Z,49.35
2023-04-15T11:24:27.374Z,49.95
2023-04-15T11:25:27.379Z,53.49
2023-04-15T11:26:27.411Z,54.76
2023-04-15T11:27:27.422Z,55.97
2023-04-15T11:28:27.465Z,55.31
2023-04-15T11:29:27.525Z,56.54
2023-04-15T11:30:27.562Z,57.40
2023-04-15T11:31:27.675Z,56.94
2023-04-15T11:32:27.706Z,55.33
2023-04-15T11:33:27.762Z,55.33
2023-04-15T11:34:27.831Z,55.05
2023-04-15T11:35:27.901Z,56.38
2023-04-15T11:36:27.981Z,56.14
2023-04-15T11:37:27.972Z,55.09
2023-04-15T11:38:28.035Z,55.77
2023-04-15T11:39:28.111Z,56.05
2023-04-15T11:40:28.147Z,55.74
2023-04-15T11:41:28.203Z,55.79
2023-04-15T11:42:39.251Z,57.52
2023-04-15T11:43:28.260Z,57.83
2023-04-15T11:44:28.266Z,59.81
2023-04-15T11:45:28.325Z,60.39
2023-04-15T11:46:28.301Z,60.96
2023-04-15T11:47:28.325Z,61.28
2023-04-15T11:48:28.324Z,62.15
2023-04-15T11:49:28.327Z,61.49
2023-04-15T11:50:28.352Z,60.43
2023-04-15T11:51:28.365Z,61.06
2023-04-15T11:52:28.396Z,60.47
2023-04-15T11:53:28.412Z,59.87
2023-04-15T11:54:28.435Z,59.98
2023-04-15T11:55:28.860Z,59.99
2023-04-15T11:56:28.462Z,60.99
2023-04-15T11:57:28.486Z,60.88
2023-04-15T11:58:28.470Z,61.22
2023-04-15T11:59:39.029Z,60.66
2023-04-15T12:00:28.499Z,61.01
2023-04-15T12:01:28.517Z,60.10
2023-04-15T12:02:28.653Z,60.02
2023-04-15T12:03:28.766Z,60.27
2023-04-15T12:04:28.822Z,61.68
2023-04-15T12:05:28.654Z,62.03
2023-04-15T12:06:28.680Z,63.43
2023-04-15T12:07:28.720Z,63.76
2023-04-15T12:08:28.728Z,62.79
2023-04-15T12:09:29.976Z,61.71
2023-04-15T12:10:28.754Z,62.00
2023-04-15T12:11:28.785Z,63.21
2023-04-15T12:12:28.783Z,62.59
2023-04-15T12:13:28.799Z,62.60
2023-04-15T12:14:28.832Z,63.02
2023-04-15T12:15:28.996Z,62.94
2023-04-15T12:16:28.888Z,62.68
2023-04-15T12:17:28.911Z,63.49
2023-04-15T12:18:28.915Z,64.33
2023-04-15T12:19:28.926Z,63.70
2023-04-15T12:20:28.952Z,63.30
2023-04-15T12:21:28.982Z,62.37
2023-04-15T12:22:28.999Z,61.05
2023-04-15T12:23:29.027Z,60.28
2023-04-15T12:24:29.074Z,59.55
2023-04-15T12:25:29.056Z,59.12
2023-04-15T12:26:29.089Z,59.11
2023-04-15T12:27:29.879Z,59.86
2023-04-15T12:28:29.118Z,59.56
2023-04-15T12:29:29.271Z,59.50
2023-04-15T12:30:29.171Z,59.57
2023-04-15T12:31:29.227Z,59.85
2023-04-15T12:32:29.210Z,60.54
2023-04-15T12:33:29.219Z,62.14
2023-04-15T12:34:29.238Z,63.00
2023-04-15T12:35:29.243Z,63.63
2023-04-15T12:36:29.255Z,64.06
2023-04-15T12:37:29.258Z,64.19
2023-04-15T12:38:29.279Z,63.97
2023-04-15T12:39:30.672Z,64.14
2023-04-15T12:40:29.520Z,63.96
2023-04-15T12:41:29.598Z,64.59
2023-04-15T12:42:29.690Z,64.42
2023-04-15T12:43:29.791Z,64.43
2023-04-15T12:44:29.876Z,63.93
2023-04-15T12:45:30.088Z,64.62
2023-04-15T12:46:30.062Z,64.75
2023-04-15T12:47:30.100Z,65.32
2023-04-15T12:48:30.162Z,65.14
2023-04-15T12:49:30.218Z,65.66
2023-04-15T12:50:30.309Z,66.07
2023-04-15T12:51:30.357Z,65.77
2023-04-15T12:52:30.456Z,66.07